sensor_id;sensor_type;location;lat;lon;timestamp;P1;durP1;ratioP1;P2;durP2;ratioP2
50851;SDS011;43953;45.508;-122.806;2023-11-21T00:00:26;9.07;;;2.03;;
50851;SDS011;43953;45.508;-122.806;2023-11-21T00:00:58;8.55;;;2.03;;
50851;SDS011;43953;45.508;-122.806;2023-11-21T00:01:30;10.60;;;1.73;;
50851;SDS011;43953;45.508;-122.806;2023-11-21T00:02:01;11.45;;;2.00;;
50851;SDS011;43953;45.508;-122.806;2023-11-21T00:02:34;8.65;;;2.03;;
50851;SDS011;43953;45.508;-122.806;2023-11-21T00:03:07;6.93;;;2.00;;
50851;SDS011;43953;45.508;-122.806;2023-11-21T00:03:38;8.73;;;1.85;;
50851;SDS011;43953;45.508;-122.806;2023-11-21T00:04:11;9.93;;;1.85;;
50851;SDS011;43953;45.508;-122.806;2023-11-21T00:04:42;9.85;;;1.90;;
50851;SDS011;43953;45.508;-122.806;2023-11-21T00:05:14;10.13;;;2.00;;
50851;SDS011;43953;45.508;-122.806;2023-11-21T00:05:46;11.57;;;1.70;;
50851;SDS011;43953;45.508;-122.806;2023-11-21T00:06:18;9.10;;;2.00;;
50851;SDS011;43953;45.508;-122.806;2023-11-21T00:06:51;6.40;;;1.73;;
50851;SDS011;43953;45.508;-122.806;2023-11-21T00:07:22;11.25;;;1.70;;
50851;SDS011;43953;45.508;-122.806;2023-11-21T00:07:54;12.23;;;1.73;;
50851;SDS011;43953;45.508;-122.806;2023-11-21T00:08:26;8.50;;;1.70;;
50851;SDS011;43953;45.508;-122.806;2023-11-21T00:08:58;14.60;;;2.20;;
50851;SDS011;43953;45.508;-122.806;2023-11-21T00:09:30;8.57;;;1.80;;
50851;SDS011;43953;45.508;-122.806;2023-11-21T00:10:02;13.40;;;2.30;;
50851;SDS011;43953;45.508;-122.806;2023-11-21T00:10:36;7.43;;;1.70;;
50851;SDS011;43953;45.508;-122.806;2023-11-21T00:11:09;10.18;;;1.98;;
50851;SDS011;43953;45.508;-122.806;2023-11-21T00:11:41;9.30;;;1.65;;
50851;SDS011;43953;45.508;-122.806;2023-11-21T00:12:14;7.53;;;1.50;;
50851;SDS011;43953;45.508;-122.806;2023-11-21T00:12:46;4.38;;;1.17;;
50851;SDS011;43953;45.508;-122.806;2023-11-21T00:13:19;3.70;;;1.42;;
50851;SDS011;43953;45.508;-122.806;2023-11-21T00:13:50;6.38;;;1.08;;
50851;SDS011;43953;45.508;-122.806;2023-11-21T00:14:22;3.65;;;1.00;;
50851;SDS011;43953;45.508;-122.806;2023-11-21T00:14:54;5.88;;;1.00;;
50851;SDS011;43953;45.508;-122.806;2023-11-21T00:15:25;4.35;;;1.55;;
50851;SDS011;43953;45.508;-122.806;2023-11-21T00:15:58;4.15;;;1.30;;
50851;SDS011;43953;45.508;-122.806;2023-11-21T00:16:29;5.50;;;1.00;;
50851;SDS011;43953;45.508;-122.806;2023-11-21T00:17:01;6.18;;;1.10;;
50851;SDS011;43953;45.508;-122.806;2023-11-21T00:17:33;2.50;;;1.00;;
50851;SDS011;43953;45.508;-122.806;2023-11-21T00:18:06;4.15;;;1.00;;
50851;SDS011;43953;45.508;-122.806;2023-11-21T00:18:38;4.45;;;0.95;;
50851;SDS011;43953;45.508;-122.806;2023-11-21T00:19:10;4.10;;;1.00;;
50851;SDS011;43953;45.508;-122.806;2023-11-21T00:19:43;2.95;;;0.95;;
50851;SDS011;43953;45.508;-122.806;2023-11-21T00:20:14;6.32;;;1.00;;
50851;SDS011;43953;45.508;-122.806;2023-11-21T00:20:46;3.70;;;0.98;;
50851;SDS011;43953;45.508;-122.806;2023-11-21T00:21:18;9.38;;;1.40;;
50851;SDS011;43953;45.508;-122.806;2023-11-21T00:21:49;3.38;;;1.20;;
50851;SDS011;43953;45.508;-122.806;2023-11-21T00:22:21;4.90;;;1.00;;
50851;SDS011;43953;45.508;-122.806;2023-11-21T00:22:53;3.22;;;1.15;;
50851;SDS011;43953;45.508;-122.806;2023-11-21T00:23:24;7.13;;;1.20;;
50851;SDS011;43953;45.508;-122.806;2023-11-21T00:23:56;5.45;;;1.20;;
50851;SDS011;43953;45.508;-122.806;2023-11-21T00:24:28;4.53;;;0.98;;
50851;SDS011;43953;45.508;-122.806;2023-11-21T00:24:59;4.15;;;1.00;;
50851;SDS011;43953;45.508;-122.806;2023-11-21T00:25:31;2.83;;;1.20;;
50851;SDS011;43953;45.508;-122.806;2023-11-21T00:26:03;4.75;;;1.20;;
50851;SDS011;43953;45.508;-122.806;2023-11-21T00:26:35;4.40;;;1.20;;
50851;SDS011;43953;45.508;-122.806;2023-11-21T00:27:10;3.05;;;0.90;;
50851;SDS011;43953;45.508;-122.806;2023-11-21T00:27:41;2.78;;;1.13;;
50851;SDS011;43953;45.508;-122.806;2023-11-21T00:28:13;5.88;;;1.80;;
50851;SDS011;43953;45.508;-122.806;2023-11-21T00:28:45;5.47;;;1.17;;
50851;SDS011;43953;45.508;-122.806;2023-11-21T00:29:16;6.55;;;1.15;;
50851;SDS011;43953;45.508;-122.806;2023-11-21T00:29:49;4.18;;;1.30;;
50851;SDS011;43953;45.508;-122.806;2023-11-21T00:30:20;5.75;;;1.20;;
50851;SDS011;43953;45.508;-122.806;2023-11-21T00:30:53;5.18;;;1.55;;
50851;SDS011;43953;45.508;-122.806;2023-11-21T00:31:24;3.13;;;0.90;;
50851;SDS011;43953;45.508;-122.806;2023-11-21T00:31:56;7.75;;;1.23;;
50851;SDS011;43953;45.508;-122.806;2023-11-21T00:32:28;3.70;;;1.10;;
50851;SDS011;43953;45.508;-122.806;2023-11-21T00:32:59;5.53;;;0.80;;
50851;SDS011;43953;45.508;-122.806;2023-11-21T00:33:31;2.47;;;1.10;;
50851;SDS011;43953;45.508;-122.806;2023-11-21T00:34:03;2.50;;;0.90;;
50851;SDS011;43953;45.508;-122.806;2023-11-21T00:34:36;3.90;;;1.42;;
50851;SDS011;43953;45.508;-122.806;2023-11-21T00:35:07;4.85;;;1.00;;
50851;SDS011;43953;45.508;-122.806;2023-11-21T00:35:39;2.13;;;0.88;;
50851;SDS011;43953;45.508;-122.806;2023-11-21T00:36:11;4.50;;;0.98;;
50851;SDS011;43953;45.508;-122.806;2023-11-21T00:36:43;4.10;;;1.00;;
50851;SDS011;43953;45.508;-122.806;2023-11-21T00:37:14;2.25;;;1.00;;
50851;SDS011;43953;45.508;-122.806;2023-11-21T00:37:46;4.43;;;1.20;;
50851;SDS011;43953;45.508;-122.806;2023-11-21T00:38:20;4.00;;;0.95;;
50851;SDS011;43953;45.508;-122.806;2023-11-21T00:38:52;6.32;;;1.30;;
50851;SDS011;43953;45.508;-122.806;2023-11-21T00:39:23;6.05;;;1.42;;
50851;SDS011;43953;45.508;-122.806;2023-11-21T00:39:56;4.32;;;1.15;;
50851;SDS011;43953;45.508;-122.806;2023-11-21T00:40:28;3.05;;;0.80;;
50851;SDS011;43953;45.508;-122.806;2023-11-21T00:41:00;3.70;;;1.00;;
50851;SDS011;43953;45.508;-122.806;2023-11-21T00:41:32;5.28;;;1.13;;
50851;SDS011;43953;45.508;-122.806;2023-11-21T00:42:03;3.72;;;1.20;;
50851;SDS011;43953;45.508;-122.806;2023-11-21T00:42:35;3.95;;;1.10;;
50851;SDS011;43953;45.508;-122.806;2023-11-21T00:43:07;3.75;;;0.85;;
50851;SDS011;43953;45.508;-122.806;2023-11-21T00:43:39;5.07;;;1.30;;
50851;SDS011;43953;45.508;-122.806;2023-11-21T00:44:10;5.72;;;1.00;;
50851;SDS011;43953;45.508;-122.806;2023-11-21T00:44:42;4.53;;;1.17;;
50851;SDS011;43953;45.508;-122.806;2023-11-21T00:45:14;6.28;;;1.00;;
50851;SDS011;43953;45.508;-122.806;2023-11-21T00:45:46;3.53;;;0.90;;
50851;SDS011;43953;45.508;-122.806;2023-11-21T00:46:19;5.82;;;1.30;;
50851;SDS011;43953;45.508;-122.806;2023-11-21T00:46:51;6.72;;;1.67;;
50851;SDS011;43953;45.508;-122.806;2023-11-21T00:47:23;3.90;;;1.00;;
50851;SDS011;43953;45.508;-122.806;2023-11-21T00:47:55;5.72;;;1.20;;
50851;SDS011;43953;45.508;-122.806;2023-11-21T00:48:27;3.30;;;0.93;;
50851;SDS011;43953;45.508;-122.806;2023-11-21T00:48:58;6.63;;;1.25;;
50851;SDS011;43953;45.508;-122.806;2023-11-21T00:49:30;3.10;;;0.90;;
50851;SDS011;43953;45.508;-122.806;2023-11-21T00:50:03;2.28;;;1.00;;
50851;SDS011;43953;45.508;-122.806;2023-11-21T00:50:36;5.18;;;1.20;;
50851;SDS011;43953;45.508;-122.806;2023-11-21T00:51:08;6.20;;;1.02;;
50851;SDS011;43953;45.508;-122.806;2023-11-21T00:51:40;5.38;;;1.35;;
50851;SDS011;43953;45.508;-122.806;2023-11-21T00:52:11;4.30;;;1.13;;
50851;SDS011;43953;45.508;-122.806;2023-11-21T00:52:43;3.25;;;0.90;;
50851;SDS011;43953;45.508;-122.806;2023-11-21T00:53:15;5.15;;;1.35;;
50851;SDS011;43953;45.508;-122.806;2023-11-21T00:53:48;7.10;;;1.27;;
50851;SDS011;43953;45.508;-122.806;2023-11-21T00:54:19;7.68;;;1.50;;
50851;SDS011;43953;45.508;-122.806;2023-11-21T00:54:51;3.22;;;1.20;;
50851;SDS011;43953;45.508;-122.806;2023-11-21T00:55:23;5.95;;;1.00;;
50851;SDS011;43953;45.508;-122.806;2023-11-21T00:55:57;3.15;;;1.17;;
50851;SDS011;43953;45.508;-122.806;2023-11-21T00:56:29;3.17;;;1.00;;
50851;SDS011;43953;45.508;-122.806;2023-11-21T00:57:00;6.60;;;1.13;;
50851;SDS011;43953;45.508;-122.806;2023-11-21T00:57:32;4.43;;;1.00;;
50851;SDS011;43953;45.508;-122.806;2023-11-21T00:58:04;5.60;;;1.25;;
50851;SDS011;43953;45.508;-122.806;2023-11-21T00:58:37;5.57;;;1.27;;
50851;SDS011;43953;45.508;-122.806;2023-11-21T00:59:09;4.47;;;1.30;;
50851;SDS011;43953;45.508;-122.806;2023-11-21T00:59:41;5.97;;;1.52;;
50851;SDS011;43953;45.508;-122.806;2023-11-21T01:00:13;8.02;;;1.10;;
50851;SDS011;43953;45.508;-122.806;2023-11-21T01:00:47;4.78;;;1.10;;
50851;SDS011;43953;45.508;-122.806;2023-11-21T01:01:19;5.78;;;1.05;;
50851;SDS011;43953;45.508;-122.806;2023-11-21T01:01:53;4.90;;;1.20;;
50851;SDS011;43953;45.508;-122.806;2023-11-21T01:02:25;3.70;;;1.00;;
50851;SDS011;43953;45.508;-122.806;2023-11-21T01:02:56;5.00;;;1.20;;
50851;SDS011;43953;45.508;-122.806;2023-11-21T01:03:29;6.97;;;1.20;;
50851;SDS011;43953;45.508;-122.806;2023-11-21T01:04:01;8.02;;;1.40;;
50851;SDS011;43953;45.508;-122.806;2023-11-21T01:04:33;6.25;;;1.30;;
50851;SDS011;43953;45.508;-122.806;2023-11-21T01:05:05;5.25;;;1.05;;
50851;SDS011;43953;45.508;-122.806;2023-11-21T01:05:38;6.35;;;1.10;;
50851;SDS011;43953;45.508;-122.806;2023-11-21T01:06:10;6.05;;;1.27;;
50851;SDS011;43953;45.508;-122.806;2023-11-21T01:06:42;5.22;;;1.33;;
50851;SDS011;43953;45.508;-122.806;2023-11-21T01:07:14;5.65;;;1.25;;
50851;SDS011;43953;45.508;-122.806;2023-11-21T01:07:45;2.25;;;1.08;;
50851;SDS011;43953;45.508;-122.806;2023-11-21T01:08:17;4.32;;;1.38;;
50851;SDS011;43953;45.508;-122.806;2023-11-21T01:08:49;2.40;;;0.90;;
50851;SDS011;43953;45.508;-122.806;2023-11-21T01:09:20;4.40;;;1.25;;
50851;SDS011;43953;45.508;-122.806;2023-11-21T01:09:52;4.40;;;1.13;;
50851;SDS011;43953;45.508;-122.806;2023-11-21T01:10:24;4.50;;;1.70;;
50851;SDS011;43953;45.508;-122.806;2023-11-21T01:10:55;3.47;;;1.30;;
50851;SDS011;43953;45.508;-122.806;2023-11-21T01:11:27;3.83;;;1.20;;
50851;SDS011;43953;45.508;-122.806;2023-11-21T01:11:59;4.80;;;1.20;;
50851;SDS011;43953;45.508;-122.806;2023-11-21T01:12:31;2.25;;;1.10;;
50851;SDS011;43953;45.508;-122.806;2023-11-21T01:13:02;3.65;;;1.10;;
50851;SDS011;43953;45.508;-122.806;2023-11-21T01:13:41;7.95;;;1.20;;
50851;SDS011;43953;45.508;-122.806;2023-11-21T01:14:13;4.30;;;1.00;;
50851;SDS011;43953;45.508;-122.806;2023-11-21T01:14:45;3.72;;;1.33;;
50851;SDS011;43953;45.508;-122.806;2023-11-21T01:15:17;3.42;;;0.90;;
50851;SDS011;43953;45.508;-122.806;2023-11-21T01:15:48;4.00;;;1.10;;
50851;SDS011;43953;45.508;-122.806;2023-11-21T01:16:20;3.90;;;1.00;;
50851;SDS011;43953;45.508;-122.806;2023-11-21T01:16:52;3.05;;;1.10;;
50851;SDS011;43953;45.508;-122.806;2023-11-21T01:17:24;5.43;;;1.40;;
50851;SDS011;43953;45.508;-122.806;2023-11-21T01:17:56;2.30;;;1.10;;
50851;SDS011;43953;45.508;-122.806;2023-11-21T01:18:27;8.23;;;1.50;;
50851;SDS011;43953;45.508;-122.806;2023-11-21T01:19:00;4.10;;;1.13;;
50851;SDS011;43953;45.508;-122.806;2023-11-21T01:19:32;4.15;;;1.45;;
50851;SDS011;43953;45.508;-122.806;2023-11-21T01:20:04;3.67;;;1.25;;
50851;SDS011;43953;45.508;-122.806;2023-11-21T01:20:42;3.20;;;1.40;;
50851;SDS011;43953;45.508;-122.806;2023-11-21T01:21:13;4.85;;;1.30;;
50851;SDS011;43953;45.508;-122.806;2023-11-21T01:21:45;3.05;;;1.08;;
50851;SDS011;43953;45.508;-122.806;2023-11-21T01:22:17;7.03;;;1.63;;
50851;SDS011;43953;45.508;-122.806;2023-11-21T01:22:50;3.75;;;1.40;;
50851;SDS011;43953;45.508;-122.806;2023-11-21T01:23:24;4.78;;;1.35;;
50851;SDS011;43953;45.508;-122.806;2023-11-21T01:23:56;3.10;;;1.20;;
50851;SDS011;43953;45.508;-122.806;2023-11-21T01:24:27;7.78;;;1.27;;
50851;SDS011;43953;45.508;-122.806;2023-11-21T01:24:59;5.18;;;1.20;;
50851;SDS011;43953;45.508;-122.806;2023-11-21T01:25:31;3.88;;;0.90;;
50851;SDS011;43953;45.508;-122.806;2023-11-21T01:26:02;5.15;;;1.40;;
50851;SDS011;43953;45.508;-122.806;2023-11-21T01:26:34;6.15;;;1.27;;
50851;SDS011;43953;45.508;-122.806;2023-11-21T01:27:06;4.85;;;1.33;;
50851;SDS011;43953;45.508;-122.806;2023-11-21T01:27:39;2.75;;;1.10;;
50851;SDS011;43953;45.508;-122.806;2023-11-21T01:28:11;3.72;;;1.33;;
50851;SDS011;43953;45.508;-122.806;2023-11-21T01:28:43;3.22;;;1.00;;
50851;SDS011;43953;45.508;-122.806;2023-11-21T01:29:14;3.53;;;1.10;;
50851;SDS011;43953;45.508;-122.806;2023-11-21T01:29:46;6.53;;;1.35;;
50851;SDS011;43953;45.508;-122.806;2023-11-21T01:30:17;7.43;;;1.20;;
50851;SDS011;43953;45.508;-122.806;2023-11-21T01:30:49;4.45;;;1.48;;
50851;SDS011;43953;45.508;-122.806;2023-11-21T01:31:21;4.90;;;1.30;;
50851;SDS011;43953;45.508;-122.806;2023-11-21T01:31:53;7.45;;;1.27;;
50851;SDS011;43953;45.508;-122.806;2023-11-21T01:32:24;5.18;;;1.27;;
50851;SDS011;43953;45.508;-122.806;2023-11-21T01:32:56;7.10;;;1.10;;
50851;SDS011;43953;45.508;-122.806;2023-11-21T01:33:28;3.70;;;0.82;;
50851;SDS011;43953;45.508;-122.806;2023-11-21T01:33:59;3.92;;;1.30;;
50851;SDS011;43953;45.508;-122.806;2023-11-21T01:34:31;4.53;;;1.30;;
50851;SDS011;43953;45.508;-122.806;2023-11-21T01:35:03;3.33;;;1.20;;
50851;SDS011;43953;45.508;-122.806;2023-11-21T01:35:36;5.47;;;1.20;;
50851;SDS011;43953;45.508;-122.806;2023-11-21T01:36:08;5.93;;;1.38;;
50851;SDS011;43953;45.508;-122.806;2023-11-21T01:36:41;3.45;;;1.20;;
50851;SDS011;43953;45.508;-122.806;2023-11-21T01:37:12;4.50;;;1.05;;
50851;SDS011;43953;45.508;-122.806;2023-11-21T01:37:44;3.35;;;1.00;;
50851;SDS011;43953;45.508;-122.806;2023-11-21T01:38:16;3.08;;;1.10;;
50851;SDS011;43953;45.508;-122.806;2023-11-21T01:38:48;5.93;;;1.48;;
50851;SDS011;43953;45.508;-122.806;2023-11-21T01:39:20;4.43;;;1.17;;
50851;SDS011;43953;45.508;-122.806;2023-11-21T01:39:54;5.05;;;1.25;;
50851;SDS011;43953;45.508;-122.806;2023-11-21T01:40:26;3.40;;;1.10;;
50851;SDS011;43953;45.508;-122.806;2023-11-21T01:40:59;3.25;;;1.02;;
50851;SDS011;43953;45.508;-122.806;2023-11-21T01:41:31;6.15;;;1.20;;
50851;SDS011;43953;45.508;-122.806;2023-11-21T01:42:03;9.30;;;1.35;;
50851;SDS011;43953;45.508;-122.806;2023-11-21T01:42:35;4.63;;;1.42;;
50851;SDS011;43953;45.508;-122.806;2023-11-21T01:43:07;5.38;;;1.25;;
50851;SDS011;43953;45.508;-122.806;2023-11-21T01:43:39;6.05;;;1.20;;
50851;SDS011;43953;45.508;-122.806;2023-11-21T01:44:11;7.03;;;1.20;;
50851;SDS011;43953;45.508;-122.806;2023-11-21T01:44:44;8.23;;;1.50;;
50851;SDS011;43953;45.508;-122.806;2023-11-21T01:45:15;3.30;;;1.10;;
50851;SDS011;43953;45.508;-122.806;2023-11-21T01:45:47;3.13;;;1.10;;
50851;SDS011;43953;45.508;-122.806;2023-11-21T01:46:19;6.25;;;1.30;;
50851;SDS011;43953;45.508;-122.806;2023-11-21T01:46:52;4.32;;;1.20;;
50851;SDS011;43953;45.508;-122.806;2023-11-21T01:47:24;1.98;;;1.02;;
50851;SDS011;43953;45.508;-122.806;2023-11-21T01:47:56;5.00;;;1.15;;
50851;SDS011;43953;45.508;-122.806;2023-11-21T01:48:28;6.40;;;1.50;;
50851;SDS011;43953;45.508;-122.806;2023-11-21T01:49:00;3.95;;;1.05;;
50851;SDS011;43953;45.508;-122.806;2023-11-21T01:49:32;4.10;;;1.20;;
50851;SDS011;43953;45.508;-122.806;2023-11-21T01:50:05;4.03;;;1.30;;
50851;SDS011;43953;45.508;-122.806;2023-11-21T01:50:38;4.45;;;1.13;;
50851;SDS011;43953;45.508;-122.806;2023-11-21T01:51:10;7.75;;;1.80;;
50851;SDS011;43953;45.508;-122.806;2023-11-21T01:51:42;5.07;;;1.30;;
50851;SDS011;43953;45.508;-122.806;2023-11-21T01:52:19;3.55;;;1.10;;
50851;SDS011;43953;45.508;-122.806;2023-11-21T01:52:51;3.05;;;1.17;;
50851;SDS011;43953;45.508;-122.806;2023-11-21T01:53:26;4.57;;;1.60;;
50851;SDS011;43953;45.508;-122.806;2023-11-21T01:53:59;2.50;;;0.90;;
50851;SDS011;43953;45.508;-122.806;2023-11-21T01:54:30;3.58;;;1.05;;
50851;SDS011;43953;45.508;-122.806;2023-11-21T01:55:03;2.33;;;0.75;;
50851;SDS011;43953;45.508;-122.806;2023-11-21T01:55:37;3.15;;;1.15;;
50851;SDS011;43953;45.508;-122.806;2023-11-21T01:56:09;2.55;;;0.60;;
50851;SDS011;43953;45.508;-122.806;2023-11-21T01:56:41;4.15;;;0.90;;
50851;SDS011;43953;45.508;-122.806;2023-11-21T01:57:13;3.38;;;0.90;;
50851;SDS011;43953;45.508;-122.806;2023-11-21T01:57:46;1.67;;;0.80;;
50851;SDS011;43953;45.508;-122.806;2023-11-21T01:58:19;3.13;;;0.90;;
50851;SDS011;43953;45.508;-122.806;2023-11-21T01:58:51;3.00;;;0.80;;
50851;SDS011;43953;45.508;-122.806;2023-11-21T01:59:23;4.35;;;1.05;;
50851;SDS011;43953;45.508;-122.806;2023-11-21T01:59:57;3.83;;;1.02;;
50851;SDS011;43953;45.508;-122.806;2023-11-21T02:00:41;8.57;;;1.65;;
50851;SDS011;43953;45.508;-122.806;2023-11-21T02:01:14;1.90;;;0.80;;
50851;SDS011;43953;45.508;-122.806;2023-11-21T02:01:46;4.28;;;1.00;;
50851;SDS011;43953;45.508;-122.806;2023-11-21T02:02:17;6.05;;;1.40;;
50851;SDS011;43953;45.508;-122.806;2023-11-21T02:02:49;2.40;;;0.63;;
50851;SDS011;43953;45.508;-122.806;2023-11-21T02:03:21;2.78;;;0.70;;
50851;SDS011;43953;45.508;-122.806;2023-11-21T02:03:53;2.00;;;0.50;;
50851;SDS011;43953;45.508;-122.806;2023-11-21T02:04:24;2.55;;;0.93;;
50851;SDS011;43953;45.508;-122.806;2023-11-21T02:04:56;4.88;;;0.70;;
50851;SDS011;43953;45.508;-122.806;2023-11-21T02:05:28;2.80;;;0.90;;
50851;SDS011;43953;45.508;-122.806;2023-11-21T02:06:00;4.63;;;0.60;;
50851;SDS011;43953;45.508;-122.806;2023-11-21T02:06:32;4.55;;;0.63;;
50851;SDS011;43953;45.508;-122.806;2023-11-21T02:07:05;1.77;;;0.70;;
50851;SDS011;43953;45.508;-122.806;2023-11-21T02:07:36;1.85;;;0.50;;
50851;SDS011;43953;45.508;-122.806;2023-11-21T02:08:08;2.40;;;0.50;;
50851;SDS011;43953;45.508;-122.806;2023-11-21T02:08:40;3.47;;;0.60;;
50851;SDS011;43953;45.508;-122.806;2023-11-21T02:09:15;2.28;;;0.50;;
50851;SDS011;43953;45.508;-122.806;2023-11-21T02:09:46;1.73;;;0.50;;
50851;SDS011;43953;45.508;-122.806;2023-11-21T02:10:19;1.88;;;0.70;;
50851;SDS011;43953;45.508;-122.806;2023-11-21T02:10:53;2.28;;;0.65;;
50851;SDS011;43953;45.508;-122.806;2023-11-21T02:11:25;2.00;;;0.43;;
50851;SDS011;43953;45.508;-122.806;2023-11-21T02:11:58;2.13;;;0.50;;
50851;SDS011;43953;45.508;-122.806;2023-11-21T02:12:30;0.40;;;0.40;;
50851;SDS011;43953;45.508;-122.806;2023-11-21T02:13:02;0.80;;;0.60;;
50851;SDS011;43953;45.508;-122.806;2023-11-21T02:13:34;2.17;;;0.60;;
50851;SDS011;43953;45.508;-122.806;2023-11-21T02:14:06;6.50;;;0.50;;
50851;SDS011;43953;45.508;-122.806;2023-11-21T02:14:39;3.25;;;0.60;;
50851;SDS011;43953;45.508;-122.806;2023-11-21T02:15:14;5.20;;;0.80;;
50851;SDS011;43953;45.508;-122.806;2023-11-21T02:15:46;2.00;;;0.50;;
50851;SDS011;43953;45.508;-122.806;2023-11-21T02:16:19;1.52;;;0.52;;
50851;SDS011;43953;45.508;-122.806;2023-11-21T02:16:52;5.03;;;0.80;;
50851;SDS011;43953;45.508;-122.806;2023-11-21T02:17:24;2.22;;;0.60;;
50851;SDS011;43953;45.508;-122.806;2023-11-21T02:17:58;2.05;;;0.65;;
50851;SDS011;43953;45.508;-122.806;2023-11-21T02:18:31;3.70;;;0.70;;
50851;SDS011;43953;45.508;-122.806;2023-11-21T02:19:03;3.38;;;0.68;;
50851;SDS011;43953;45.508;-122.806;2023-11-21T02:19:40;5.07;;;0.77;;
50851;SDS011;43953;45.508;-122.806;2023-11-21T02:20:12;8.85;;;0.77;;
50851;SDS011;43953;45.508;-122.806;2023-11-21T02:20:46;1.13;;;0.60;;
50851;SDS011;43953;45.508;-122.806;2023-11-21T02:21:18;4.72;;;0.77;;
50851;SDS011;43953;45.508;-122.806;2023-11-21T02:21:50;2.70;;;0.65;;
50851;SDS011;43953;45.508;-122.806;2023-11-21T02:22:26;2.25;;;0.60;;
50851;SDS011;43953;45.508;-122.806;2023-11-21T02:23:03;5.13;;;0.60;;
50851;SDS011;43953;45.508;-122.806;2023-11-21T02:23:35;5.07;;;1.10;;
50851;SDS011;43953;45.508;-122.806;2023-11-21T02:24:07;8.13;;;0.88;;
50851;SDS011;43953;45.508;-122.806;2023-11-21T02:24:39;6.55;;;1.02;;
50851;SDS011;43953;45.508;-122.806;2023-11-21T02:25:13;2.88;;;0.70;;
50851;SDS011;43953;45.508;-122.806;2023-11-21T02:25:45;6.70;;;0.90;;
50851;SDS011;43953;45.508;-122.806;2023-11-21T02:26:17;7.63;;;1.17;;
50851;SDS011;43953;45.508;-122.806;2023-11-21T02:26:51;3.88;;;0.90;;
50851;SDS011;43953;45.508;-122.806;2023-11-21T02:27:23;5.07;;;0.90;;
50851;SDS011;43953;45.508;-122.806;2023-11-21T02:27:55;2.13;;;0.63;;
50851;SDS011;43953;45.508;-122.806;2023-11-21T02:28:28;3.38;;;0.47;;
50851;SDS011;43953;45.508;-122.806;2023-11-21T02:28:59;2.72;;;0.65;;
50851;SDS011;43953;45.508;-122.806;2023-11-21T02:29:31;2.55;;;0.77;;
50851;SDS011;43953;45.508;-122.806;2023-11-21T02:30:04;4.72;;;0.88;;
50851;SDS011;43953;45.508;-122.806;2023-11-21T02:30:38;4.10;;;0.73;;
50851;SDS011;43953;45.508;-122.806;2023-11-21T02:31:10;2.50;;;0.68;;
50851;SDS011;43953;45.508;-122.806;2023-11-21T02:31:43;6.85;;;0.88;;
50851;SDS011;43953;45.508;-122.806;2023-11-21T02:32:20;3.33;;;1.08;;
50851;SDS011;43953;45.508;-122.806;2023-11-21T02:32:53;3.42;;;0.60;;
50851;SDS011;43953;45.508;-122.806;2023-11-21T02:33:27;4.32;;;0.75;;
50851;SDS011;43953;45.508;-122.806;2023-11-21T02:33:59;4.95;;;0.60;;
50851;SDS011;43953;45.508;-122.806;2023-11-21T02:34:31;2.67;;;0.70;;
50851;SDS011;43953;45.508;-122.806;2023-11-21T02:35:02;3.35;;;0.60;;
50851;SDS011;43953;45.508;-122.806;2023-11-21T02:35:38;5.32;;;0.68;;
50851;SDS011;43953;45.508;-122.806;2023-11-21T02:36:10;6.93;;;0.70;;
50851;SDS011;43953;45.508;-122.806;2023-11-21T02:36:42;3.33;;;0.55;;
50851;SDS011;43953;45.508;-122.806;2023-11-21T02:37:15;0.90;;;0.47;;
50851;SDS011;43953;45.508;-122.806;2023-11-21T02:37:47;2.92;;;0.65;;
50851;SDS011;43953;45.508;-122.806;2023-11-21T02:38:19;2.78;;;0.60;;
50851;SDS011;43953;45.508;-122.806;2023-11-21T02:38:52;2.90;;;0.60;;
50851;SDS011;43953;45.508;-122.806;2023-11-21T02:39:23;1.23;;;0.43;;
50851;SDS011;43953;45.508;-122.806;2023-11-21T02:39:55;1.83;;;0.50;;
50851;SDS011;43953;45.508;-122.806;2023-11-21T02:40:27;3.70;;;0.75;;
50851;SDS011;43953;45.508;-122.806;2023-11-21T02:40:59;3.67;;;0.60;;
50851;SDS011;43953;45.508;-122.806;2023-11-21T02:41:30;4.20;;;0.63;;
50851;SDS011;43953;45.508;-122.806;2023-11-21T02:42:02;5.40;;;0.57;;
50851;SDS011;43953;45.508;-122.806;2023-11-21T02:42:34;2.65;;;0.50;;
50851;SDS011;43953;45.508;-122.806;2023-11-21T02:43:06;2.60;;;0.65;;
50851;SDS011;43953;45.508;-122.806;2023-11-21T02:43:38;1.95;;;0.40;;
50851;SDS011;43953;45.508;-122.806;2023-11-21T02:44:09;2.72;;;0.50;;
50851;SDS011;43953;45.508;-122.806;2023-11-21T02:44:41;4.10;;;0.85;;
50851;SDS011;43953;45.508;-122.806;2023-11-21T02:45:13;2.63;;;0.63;;
50851;SDS011;43953;45.508;-122.806;2023-11-21T02:45:47;1.30;;;0.50;;
50851;SDS011;43953;45.508;-122.806;2023-11-21T02:46:19;2.08;;;0.60;;
50851;SDS011;43953;45.508;-122.806;2023-11-21T02:46:50;3.90;;;0.80;;
50851;SDS011;43953;45.508;-122.806;2023-11-21T02:47:22;5.13;;;0.60;;
50851;SDS011;43953;45.508;-122.806;2023-11-21T02:47:54;2.72;;;0.85;;
50851;SDS011;43953;45.508;-122.806;2023-11-21T02:48:27;3.97;;;0.88;;
50851;SDS011;43953;45.508;-122.806;2023-11-21T02:49:02;4.00;;;0.98;;
50851;SDS011;43953;45.508;-122.806;2023-11-21T02:49:34;0.85;;;0.50;;
50851;SDS011;43953;45.508;-122.806;2023-11-21T02:50:06;3.47;;;1.02;;
50851;SDS011;43953;45.508;-122.806;2023-11-21T02:50:39;4.00;;;0.70;;
50851;SDS011;43953;45.508;-122.806;2023-11-21T02:51:11;30.85;;;1.40;;
50851;SDS011;43953;45.508;-122.806;2023-11-21T02:51:42;4.28;;;0.70;;
50851;SDS011;43953;45.508;-122.806;2023-11-21T02:52:14;2.65;;;0.80;;
50851;SDS011;43953;45.508;-122.806;2023-11-21T02:52:47;5.00;;;0.98;;
50851;SDS011;43953;45.508;-122.806;2023-11-21T02:53:18;4.63;;;0.80;;
50851;SDS011;43953;45.508;-122.806;2023-11-21T02:53:50;4.50;;;1.00;;
50851;SDS011;43953;45.508;-122.806;2023-11-21T02:54:23;4.13;;;0.90;;
50851;SDS011;43953;45.508;-122.806;2023-11-21T02:54:55;5.30;;;0.80;;
50851;SDS011;43953;45.508;-122.806;2023-11-21T02:55:27;3.67;;;0.75;;
50851;SDS011;43953;45.508;-122.806;2023-11-21T02:55:58;5.60;;;0.80;;
50851;SDS011;43953;45.508;-122.806;2023-11-21T02:56:30;5.63;;;0.70;;
50851;SDS011;43953;45.508;-122.806;2023-11-21T02:57:02;3.65;;;0.90;;
50851;SDS011;43953;45.508;-122.806;2023-11-21T02:57:34;3.95;;;0.75;;
50851;SDS011;43953;45.508;-122.806;2023-11-21T02:58:05;5.15;;;0.90;;
50851;SDS011;43953;45.508;-122.806;2023-11-21T02:58:37;4.57;;;0.80;;
50851;SDS011;43953;45.508;-122.806;2023-11-21T02:59:09;5.47;;;0.93;;
50851;SDS011;43953;45.508;-122.806;2023-11-21T02:59:41;4.10;;;0.80;;
50851;SDS011;43953;45.508;-122.806;2023-11-21T03:00:12;6.20;;;0.85;;
50851;SDS011;43953;45.508;-122.806;2023-11-21T03:00:45;2.55;;;0.80;;
50851;SDS011;43953;45.508;-122.806;2023-11-21T03:01:17;6.85;;;0.80;;
50851;SDS011;43953;45.508;-122.806;2023-11-21T03:01:49;3.90;;;0.93;;
50851;SDS011;43953;45.508;-122.806;2023-11-21T03:02:21;3.95;;;0.77;;
50851;SDS011;43953;45.508;-122.806;2023-11-21T03:02:53;6.13;;;1.10;;
50851;SDS011;43953;45.508;-122.806;2023-11-21T03:03:27;2.47;;;0.63;;
50851;SDS011;43953;45.508;-122.806;2023-11-21T03:03:59;7.13;;;1.05;;
50851;SDS011;43953;45.508;-122.806;2023-11-21T03:04:31;6.78;;;0.95;;
50851;SDS011;43953;45.508;-122.806;2023-11-21T03:05:03;5.03;;;1.00;;
50851;SDS011;43953;45.508;-122.806;2023-11-21T03:05:35;2.95;;;0.73;;
50851;SDS011;43953;45.508;-122.806;2023-11-21T03:06:08;4.50;;;0.75;;